Time;durP1;ratioP1;P1;durP2;ratioP2;P2;SDS_P1;SDS_P2;PMS_P1;PMS_P2;Temp;Humidity;BMP_temperature;BMP_pressure;BME280_temperature;BME280_humidity;BME280_pressure;Samples;Min_cycle;Max_cycle;Signal;HPM_P1;HPM_P2
2023/04/30 00:01:48;;;;;;;;;;;;;;;3.23;81.03;102348.59;5033829;28;19937;-81
2023/04/30 00:04:14;;;;;;;;;;;;;;;3.31;81.43;102350.31;5026493;28;19939;-76
2023/04/30 00:06:40;;;;;;;;;;;;;;;3.36;81.50;102351.44;5013414;28;20008;-77
2023/04/30 00:09:05;;;;;;;;;;;;;;;3.16;81.61;102342.38;5031582;28;19941;-78
2023/04/30 00:11:35;;;;;;;;;;;;;;;3.05;82.31;102350.75;5015738;28;19935;-78
2023/04/30 00:14:01;;;;;;;;;;;;;;;2.93;82.97;102345.91;5018013;28;19937;-77
2023/04/30 00:16:26;;;;;;;;;;;;;;;3.08;81.81;102355.69;5032498;28;19957;-78
2023/04/30 00:18:52;;;;;;;;;;;;;;;3.10;81.79;102364.28;5021532;28;19942;-78
2023/04/30 00:21:18;;;;;;;;;;;;;;;2.99;81.97;102362.91;5032744;28;19933;-77
2023/04/30 00:23:43;;;;;;;;;;;;;;;3.22;80.94;102363.66;5032233;28;19944;-78
2023/04/30 00:26:09;;;;;;;;;;;;;;;2.86;82.09;102371.44;4999002;28;19996;-78
2023/04/30 00:28:36;;;;;;;;;;;;;;;2.73;83.09;102365.94;5014071;28;20004;-80
2023/04/30 00:31:05;;;;;;;;;;;;;;;2.85;82.98;102361.88;5030430;28;19936;-78
2023/04/30 00:33:31;;;;;;;;;;;;;;;2.89;82.24;102375.53;5053782;28;19932;-78
2023/04/30 00:35:57;;;;;;;;;;;;;;;2.85;82.01;102372.44;5015504;28;19966;-77
2023/04/30 00:38:23;;;;;;;;;;;;;;;2.72;82.97;102372.22;5019544;28;19940;-77
2023/04/30 00:40:52;;;;;;;;;;;;;;;2.89;82.78;102378.19;5015037;28;19936;-78
2023/04/30 00:43:17;;;;;;;;;;;;;;;2.84;82.30;102378.72;5038854;28;19958;-77
2023/04/30 00:45:47;;;;;;;;;;;;;;;2.68;82.47;102384.16;5003147;28;19959;-78
2023/04/30 00:48:12;;;;;;;;;;;;;;;2.88;81.85;102382.66;5032473;28;19976;-79
2023/04/30 00:50:38;;;;;;;;;;;;;;;2.78;82.26;102376.81;5046027;28;20359;-79
2023/04/30 00:53:04;;;;;;;;;;;;;;;2.67;82.14;102378.03;5035015;28;19955;-78
2023/04/30 00:55:30;;;;;;;;;;;;;;;2.52;82.73;102386.94;5014841;28;19953;-79
2023/04/30 00:57:57;;;;;;;;;;;;;;;2.55;82.88;102389.19;5035304;28;20373;-78
2023/04/30 01:00:23;;;;;;;;;;;;;;;2.55;83.72;102389.19;5021261;28;20018;-78
2023/04/30 01:02:49;;;;;;;;;;;;;;;2.72;82.27;102393.41;5023249;28;19938;-78
2023/04/30 01:05:15;;;;;;;;;;;;;;;2.34;83.59;102395.13;5033858;28;19957;-78
2023/04/30 01:07:44;;;;;;;;;;;;;;;2.50;83.37;102386.25;5016936;28;19979;-78
2023/04/30 01:10:11;;;;;;;;;;;;;;;2.34;83.79;102390.66;5034176;28;19939;-79
2023/04/30 01:12:39;;;;;;;;;;;;;;;2.40;83.79;102394.44;5022653;28;19962;-80
2023/04/30 01:15:16;;;;;;;;;;;;;;;2.18;84.50;102396.06;5023064;28;19966;-77
2023/04/30 01:17:54;;;;;;;;;;;;;;;2.30;84.23;102399.09;5027198;28;20032;-79
2023/04/30 01:20:21;;;;;;;;;;;;;;;2.30;84.41;102399.09;5034248;28;19954;-79
2023/04/30 01:22:56;;;;;;;;;;;;;;;2.20;84.49;102401.97;5015342;28;19940;-78
2023/04/30 01:25:24;;;;;;;;;;;;;;;2.19;84.65;102409.09;5033278;28;20018;-79
2023/04/30 01:27:56;;;;;;;;;;;;;;;2.28;84.29;102409.88;5038486;28;20404;-79
2023/04/30 01:30:22;;;;;;;;;;;;;;;2.23;83.43;102409.56;5033261;28;19946;-80
2023/04/30 01:32:48;;;;;;;;;;;;;;;2.14;84.20;102406.13;5033392;28;19943;-78
2023/04/30 01:35:15;;;;;;;;;;;;;;;2.16;84.69;102408.59;5024345;28;19963;-79
2023/04/30 01:37:58;;;;;;;;;;;;;;;2.31;84.31;102406.06;5014882;28;20036;-80
2023/04/30 01:40:37;;;;;;;;;;;;;;;2.28;84.26;102401.94;5033860;28;19982;-77
2023/04/30 01:43:18;;;;;;;;;;;;;;;2.11;84.54;102403.03;5031666;28;19940;-78
2023/04/30 01:45:56;;;;;;;;;;;;;;;2.12;84.89;102400.22;5030845;28;19953;-79
2023/04/30 01:48:41;;;;;;;;;;;;;;;2.16;84.61;102413.88;5033967;28;19960;-81
2023/04/30 01:51:07;;;;;;;;;;;;;;;2.07;84.60;102409.66;5040797;28;20394;-79
2023/04/30 01:53:39;;;;;;;;;;;;;;;2.13;83.65;102408.97;5021999;28;20457;-78
2023/04/30 01:56:08;;;;;;;;;;;;;;;1.82;84.83;102420.31;5032650;28;20021;-79
2023/04/30 01:58:34;;;;;;;;;;;;;;;1.75;85.16;102424.63;5031618;28;19933;-79
2023/04/30 02:01:00;;;;;;;;;;;;;;;1.75;86.03;102426.44;5028794;28;19977;-78
2023/04/30 02:03:25;;;;;;;;;;;;;;;1.59;85.69;102420.22;5027717;28;19942;-79
2023/04/30 02:05:54;;;;;;;;;;;;;;;1.62;85.73;102433.06;5028099;28;19963;-78
2023/04/30 02:08:20;;;;;;;;;;;;;;;1.49;86.01;102429.31;5017760;28;19948;-79
2023/04/30 02:10:46;;;;;;;;;;;;;;;1.43;86.00;102432.66;5027977;28;19932;-80
2023/04/30 02:13:12;;;;;;;;;;;;;;;1.54;86.42;102432.28;5034113;28;19939;-79
2023/04/30 02:15:37;;;;;;;;;;;;;;;1.36;86.30;102441.22;5032558;28;19960;-78
2023/04/30 02:18:10;;;;;;;;;;;;;;;1.42;86.96;102445.00;5026868;28;19933;-78
2023/04/30 02:20:36;;;;;;;;;;;;;;;1.35;86.72;102451.94;5033931;28;20019;-78
2023/04/30 02:23:02;;;;;;;;;;;;;;;1.34;86.63;102451.13;5032485;28;20008;-78
2023/04/30 02:25:27;;;;;;;;;;;;;;;1.27;86.84;102444.84;5033018;28;19954;-78
2023/04/30 02:27:53;;;;;;;;;;;;;;;1.28;87.26;102451.78;5033397;28;19972;-79
2023/04/30 02:30:19;;;;;;;;;;;;;;;1.28;87.49;102443.84;5036135;28;20351;-79
2023/04/30 02:32:46;;;;;;;;;;;;;;;1.30;87.53;102446.34;5031085;28;19941;-78
2023/04/30 02:35:12;;;;;;;;;;;;;;;1.50;86.88;102445.00;5013201;28;19988;-78
2023/04/30 02:37:38;;;;;;;;;;;;;;;1.39;87.15;102437.44;5031023;28;19959;-78
2023/04/30 02:40:05;;;;;;;;;;;;;;;1.33;87.19;102452.09;5031787;28;19932;-78
2023/04/30 02:42:31;;;;;;;;;;;;;;;1.30;87.47;102449.81;5023381;28;20024;-78
2023/04/30 02:44:57;;;;;;;;;;;;;;;1.20;87.17;102450.97;5023452;28;19957;-78
2023/04/30 02:47:26;;;;;;;;;;;;;;;1.20;87.62;102450.97;5035637;28;19939;-79
2023/04/30 02:49:51;;;;;;;;;;;;;;;1.09;87.96;102452.13;5036389;28;20016;-79
2023/04/30 02:52:17;;;;;;;;;;;;;;;1.26;87.55;102459.03;5032099;28;19946;-79
2023/04/30 02:54:43;;;;;;;;;;;;;;;1.14;87.31;102455.09;5023713;28;19988;-78
2023/04/30 02:57:09;;;;;;;;;;;;;;;1.11;87.80;102455.44;5012868;28;19963;-80
2023/04/30 02:59:34;;;;;;;;;;;;;;;0.97;87.67;102464.00;5035424;28;19943;-79
2023/04/30 03:02:00;;;;;;;;;;;;;;;1.05;87.55;102456.09;5041349;28;19970;-79
2023/04/30 03:04:26;;;;;;;;;;;;;;;1.23;87.34;102448.00;5032133;28;20004;-79
2023/04/30 03:06:51;;;;;;;;;;;;;;;1.13;87.29;102457.91;5025000;28;19984;-78
2023/04/30 03:09:17;;;;;;;;;;;;;;;1.02;87.54;102461.72;5027443;28;20019;-79
2023/04/30 03:11:42;;;;;;;;;;;;;;;0.93;87.92;102460.03;5033974;28;20315;-79
2023/04/30 03:14:08;;;;;;;;;;;;;;;0.97;88.27;102459.56;5040847;28;20390;-77
2023/04/30 03:16:34;;;;;;;;;;;;;;;0.96;88.12;102457.09;5029249;28;19966;-79
2023/04/30 03:18:59;;;;;;;;;;;;;;;1.17;87.79;102454.78;5037817;28;19935;-79
2023/04/30 03:21:25;;;;;;;;;;;;;;;1.12;87.79;102461.53;5038349;28;20428;-78
2023/04/30 03:23:51;;;;;;;;;;;;;;;1.01;87.58;102465.31;5011759;28;19988;-78
2023/04/30 03:26:17;;;;;;;;;;;;;;;1.02;88.17;102459.06;5023266;28;19956;-79
2023/04/30 03:28:42;;;;;;;;;;;;;;;1.05;88.05;102467.47;5035687;28;20331;-79
2023/04/30 03:31:08;;;;;;;;;;;;;;;1.00;87.59;102471.56;5034756;28;19947;-81
2023/04/30 03:33:33;;;;;;;;;;;;;;;0.91;87.79;102457.56;5038793;28;19942;-82
2023/04/30 03:36:00;;;;;;;;;;;;;;;0.83;87.72;102462.84;5031095;28;19989;-81
2023/04/30 03:38:25;;;;;;;;;;;;;;;0.92;88.10;102469.75;5041059;28;19990;-81
2023/04/30 03:40:51;;;;;;;;;;;;;;;0.82;88.25;102469.09;5014241;28;19947;-80
2023/04/30 03:43:16;;;;;;;;;;;;;;;0.97;88.29;102469.28;5037218;28;20454;-79
2023/04/30 03:45:42;;;;;;;;;;;;;;;0.96;88.90;102467.63;5033373;28;19946;-80
2023/04/30 03:48:08;;;;;;;;;;;;;;;0.86;88.67;102472.22;5029520;28;19941;-80
2023/04/30 03:50:34;;;;;;;;;;;;;;;0.93;88.88;102473.22;5044817;28;19956;-80
2023/04/30 03:53:00;;;;;;;;;;;;;;;0.91;88.94;102475.22;5040872;28;19944;-81
2023/04/30 03:55:25;;;;;;;;;;;;;;;0.94;89.29;102473.06;5031343;28;19973;-79
2023/04/30 03:57:52;;;;;;;;;;;;;;;0.99;89.88;102477.84;5043404;28;19939;-80
2023/04/30 04:00:17;;;;;;;;;;;;;;;1.01;89.68;102475.84;5035373;28;19945;-79
2023/04/30 04:02:47;;;;;;;;;;;;;;;1.09;89.25;102479.34;5014749;28;19945;-79
2023/04/30 04:05:14;;;;;;;;;;;;;;;1.05;89.90;102479.84;5030073;28;19983;-79
2023/04/30 04:07:40;;;;;;;;;;;;;;;1.03;89.94;102490.56;5038884;28;19938;-80
2023/04/30 04:10:05;;;;;;;;;;;;;;;1.17;90.24;102486.44;5027726;28;19938;-81
2023/04/30 04:12:31;;;;;;;;;;;;;;;1.14;90.13;102481.47;5024759;28;19940;-80
2023/04/30 04:14:57;;;;;;;;;;;;;;;1.21;90.07;102487.75;5039349;28;19957;-79
2023/04/30 04:17:23;;;;;;;;;;;;;;;1.27;90.05;102481.81;5039695;28;20244;-81
2023/04/30 04:19:49;;;;;;;;;;;;;;;1.30;90.16;102480.66;5042058;28;19935;-81
2023/04/30 04:22:16;;;;;;;;;;;;;;;1.32;90.31;102482.13;5035742;28;20007;-80
2023/04/30 04:24:43;;;;;;;;;;;;;;;1.39;90.37;102484.13;5026883;28;19961;-80
2023/04/30 04:27:11;;;;;;;;;;;;;;;1.43;90.33;102485.44;5020650;28;19971;-81
2023/04/30 04:29:37;;;;;;;;;;;;;;;1.44;90.27;102497.66;5035867;28;19938;-80
2023/04/30 04:32:04;;;;;;;;;;;;;;;1.43;90.07;102494.19;5023757;28;19982;-80
2023/04/30 04:34:31;;;;;;;;;;;;;;;1.55;90.11;102499.94;5017547;28;19951;-81
2023/04/30 04:36:57;;;;;;;;;;;;;;;1.61;90.21;102499.28;5028392;28;20006;-80
2023/04/30 04:39:23;;;;;;;;;;;;;;;1.70;90.28;102502.75;5036962;28;19946;-80
2023/04/30 04:41:49;;;;;;;;;;;;;;;1.76;90.60;102502.91;5014945;28;19935;-81
2023/04/30 04:44:15;;;;;;;;;;;;;;;1.85;90.21;102501.88;5038188;28;20077;-79
2023/04/30 04:46:43;;;;;;;;;;;;;;;1.97;90.44;102506.81;5035346;28;20036;-80
2023/04/30 04:49:09;;;;;;;;;;;;;;;2.05;90.46;102506.78;5037529;28;19945;-80
2023/04/30 04:51:34;;;;;;;;;;;;;;;2.06;90.24;102508.44;5017855;28;19944;-82
2023/04/30 04:54:00;;;;;;;;;;;;;;;2.14;90.04;102514.50;5030880;28;19935;-80
2023/04/30 04:56:26;;;;;;;;;;;;;;;2.21;90.44;102517.28;5012458;28;19971;-80
2023/04/30 04:58:51;;;;;;;;;;;;;;;2.28;90.36;102512.16;5043030;28;19953;-80
2023/04/30 05:01:17;;;;;;;;;;;;;;;2.36;90.04;102515.56;5036040;28;19935;-80
2023/04/30 05:03:45;;;;;;;;;;;;;;;2.44;90.29;102525.31;5031369;28;19933;-80
2023/04/30 05:06:10;;;;;;;;;;;;;;;2.55;90.10;102516.16;5038631;28;19973;-80
2023/04/30 05:08:37;;;;;;;;;;;;;;;2.70;89.61;102522.34;5016884;28;20007;-81
2023/04/30 05:11:02;;;;;;;;;;;;;;;2.77;89.46;102523.31;5006040;28;20278;-81
2023/04/30 05:13:28;;;;;;;;;;;;;;;2.88;89.26;102535.31;5020103;28;20399;-82
2023/04/30 05:15:53;;;;;;;;;;;;;;;2.96;88.86;102530.81;5042690;28;19970;-81
2023/04/30 05:18:19;;;;;;;;;;;;;;;3.09;88.31;102532.03;5037938;28;19972;-80
2023/04/30 05:20:44;;;;;;;;;;;;;;;3.24;87.68;102538.22;5035053;28;19941;-80
2023/04/30 05:23:10;;;;;;;;;;;;;;;3.35;87.87;102542.28;5019903;28;19935;-80
2023/04/30 05:25:35;;;;;;;;;;;;;;;3.48;86.92;102551.28;5020760;28;19955;-80
2023/04/30 05:28:02;;;;;;;;;;;;;;;3.69;85.85;102544.47;5036528;28;19985;-81
2023/04/30 05:30:28;;;;;;;;;;;;;;;3.88;84.27;102543.97;5035620;28;20362;-81
2023/04/30 05:32:55;;;;;;;;;;;;;;;4.00;84.14;102541.69;5034809;28;19996;-81
2023/04/30 05:35:21;;;;;;;;;;;;;;;4.15;84.04;102537.22;5023445;28;19963;-81
2023/04/30 05:37:47;;;;;;;;;;;;;;;4.29;81.74;102532.91;5022120;28;19944;-80
2023/04/30 05:40:12;;;;;;;;;;;;;;;4.44;82.28;102543.50;5024589;28;19937;-81
2023/04/30 05:42:39;;;;;;;;;;;;;;;4.56;80.61;102550.81;5017914;28;19990;-80
2023/04/30 05:45:05;;;;;;;;;;;;;;;4.74;80.12;102549.56;5038830;28;19958;-81
2023/04/30 05:47:31;;;;;;;;;;;;;;;4.83;79.24;102548.47;5022317;28;19937;-80
2023/04/30 05:49:57;;;;;;;;;;;;;;;4.96;78.10;102556.59;5020274;28;19943;-80
2023/04/30 05:52:22;;;;;;;;;;;;;;;5.11;77.84;102545.91;5056272;28;19941;-80
2023/04/30 05:54:48;;;;;;;;;;;;;;;5.18;78.52;102552.13;5037995;28;20430;-80
2023/04/30 05:57:14;;;;;;;;;;;;;;;5.39;77.57;102553.94;5009047;28;19937;-81
2023/04/30 05:59:39;;;;;;;;;;;;;;;5.42;76.20;102553.56;5021962;28;19986;-80
2023/04/30 06:02:05;;;;;;;;;;;;;;;5.59;76.16;102554.13;5041622;28;19935;-80
2023/04/30 06:04:31;;;;;;;;;;;;;;;5.65;75.63;102562.13;5031453;28;20036;-80
2023/04/30 06:06:56;;;;;;;;;;;;;;;5.83;73.13;102567.00;5046514;28;19980;-80
2023/04/30 06:09:22;;;;;;;;;;;;;;;5.86;72.95;102565.78;5056927;28;20258;-80
2023/04/30 06:11:49;;;;;;;;;;;;;;;6.20;71.68;102563.16;5042669;28;19943;-80
2023/04/30 06:14:15;;;;;;;;;;;;;;;6.38;71.87;102561.84;5040483;28;19946;-80
2023/04/30 06:16:41;;;;;;;;;;;;;;;6.54;71.15;102553.50;5022231;28;19965;-79
2023/04/30 06:19:06;;;;;;;;;;;;;;;6.62;68.06;102561.31;5025626;28;19937;-80
2023/04/30 06:21:32;;;;;;;;;;;;;;;6.59;67.54;102545.75;5033985;28;20016;-80
2023/04/30 06:23:57;;;;;;;;;;;;;;;6.56;68.43;102557.59;5011420;28;19935;-81
2023/04/30 06:26:23;;;;;;;;;;;;;;;6.71;68.34;102559.31;5031748;28;19990;-81
2023/04/30 06:28:48;;;;;;;;;;;;;;;6.75;61.55;102560.56;5021078;28;19933;-80
2023/04/30 06:31:14;;;;;;;;;;;;;;;6.97;60.53;102555.91;5034630;28;20090;-80
2023/04/30 06:33:39;;;;;;;;;;;;;;;7.22;62.09;102562.31;5019410;28;19961;-81
2023/04/30 06:36:05;;;;;;;;;;;;;;;7.37;59.05;102557.59;5038703;28;19963;-80
2023/04/30 06:38:31;;;;;;;;;;;;;;;7.44;58.43;102573.59;5035130;28;20390;-81
2023/04/30 06:40:56;;;;;;;;;;;;;;;7.94;58.25;102572.19;5034046;28;20018;-80
2023/04/30 06:43:21;;;;;;;;;;;;;;;7.92;56.24;102568.06;5016832;28;19936;-79
2023/04/30 06:45:47;;;;;;;;;;;;;;;8.19;56.08;102566.97;5038199;28;20015;-80
2023/04/30 06:48:12;;;;;;;;;;;;;;;8.61;54.54;102567.53;5034154;28;19935;-80
2023/04/30 06:50:43;;;;;;;;;;;;;;;8.31;55.78;102577.84;5013500;28;19932;-80
2023/04/30 06:53:12;;;;;;;;;;;;;;;8.56;56.04;102569.19;5041445;28;19944;-80
2023/04/30 06:55:38;;;;;;;;;;;;;;;8.51;55.08;102575.16;5034272;28;19990;-80
2023/04/30 06:58:04;;;;;;;;;;;;;;;8.87;53.76;102577.25;5034686;28;19990;-80
2023/04/30 07:00:30;;;;;;;;;;;;;;;8.23;55.99;102579.94;5046685;28;19985;-79
2023/04/30 07:02:59;;;;;;;;;;;;;;;7.83;54.95;102583.47;5036029;28;19943;-79
2023/04/30 07:05:25;;;;;;;;;;;;;;;8.04;55.09;102586.94;5029439;28;19963;-79
2023/04/30 07:07:51;;;;;;;;;;;;;;;8.31;55.09;102596.53;5015970;28;19933;-79
2023/04/30 07:10:16;;;;;;;;;;;;;;;8.33;53.04;102582.97;5011925;28;20468;-79
2023/04/30 07:12:42;;;;;;;;;;;;;;;8.73;53.63;102592.50;5017137;28;19933;-78
2023/04/30 07:15:08;;;;;;;;;;;;;;;8.83;53.74;102584.06;5008533;28;19953;-77
2023/04/30 07:17:34;;;;;;;;;;;;;;;9.18;52.80;102589.84;5001271;28;19981;-80
2023/04/30 07:19:59;;;;;;;;;;;;;;;8.72;52.25;102588.22;5047196;28;19943;-79
2023/04/30 07:22:26;;;;;;;;;;;;;;;8.52;53.67;102586.66;5027434;28;20015;-78
2023/04/30 07:24:52;;;;;;;;;;;;;;;8.72;52.34;102590.06;5031503;28;19944;-80
2023/04/30 07:27:17;;;;;;;;;;;;;;;8.26;52.55;102591.00;5034937;28;20030;-80
2023/04/30 07:29:43;;;;;;;;;;;;;;;8.59;53.61;102590.13;5005388;28;19930;-79
2023/04/30 07:32:08;;;;;;;;;;;;;;;8.82;52.65;102586.97;5033020;28;19933;-80
2023/04/30 07:34:34;;;;;;;;;;;;;;;9.06;52.13;102590.72;5028382;28;19943;-81
2023/04/30 07:37:00;;;;;;;;;;;;;;;8.94;51.52;102588.75;5032286;28;19957;-80
2023/04/30 07:39:25;;;;;;;;;;;;;;;9.50;50.52;102593.31;5029525;28;19946;-80
2023/04/30 07:41:50;;;;;;;;;;;;;;;9.84;49.48;102599.22;5014513;28;19936;-81
2023/04/30 07:44:16;;;;;;;;;;;;;;;9.66;49.21;102591.16;5020674;28;19917;-81
2023/04/30 07:46:42;;;;;;;;;;;;;;;9.54;50.16;102594.50;5017806;28;19954;-80
2023/04/30 07:49:07;;;;;;;;;;;;;;;9.66;49.74;102596.50;5032420;28;19942;-79
2023/04/30 07:51:34;;;;;;;;;;;;;;;9.93;49.30;102597.91;5034458;28;19966;-79
2023/04/30 07:54:00;;;;;;;;;;;;;;;9.96;49.65;102594.00;5037023;28;19934;-80
2023/04/30 07:56:25;;;;;;;;;;;;;;;9.98;49.67;102600.75;5036606;28;20014;-79
2023/04/30 07:58:51;;;;;;;;;;;;;;;9.96;47.44;102608.19;5039728;28;19939;-80
2023/04/30 08:01:16;;;;;;;;;;;;;;;9.78;48.62;102605.47;5025197;28;19948;-78
2023/04/30 08:03:42;;;;;;;;;;;;;;;9.22;49.71;102607.09;5038578;28;19969;-78
2023/04/30 08:06:08;;;;;;;;;;;;;;;9.42;49.04;102596.28;5036785;28;19955;-79
2023/04/30 08:08:33;;;;;;;;;;;;;;;9.48;50.59;102600.75;5040998;28;19927;-79
2023/04/30 08:10:59;;;;;;;;;;;;;;;10.12;49.12;102596.09;5056761;28;19939;-78
2023/04/30 08:13:24;;;;;;;;;;;;;;;10.12;47.60;102601.44;5004230;28;19937;-78
2023/04/30 08:15:49;;;;;;;;;;;;;;;9.81;48.95;102596.97;5031759;28;19979;-80
2023/04/30 08:18:15;;;;;;;;;;;;;;;10.53;48.38;102603.50;5039419;28;20021;-80
2023/04/30 08:20:40;;;;;;;;;;;;;;;10.43;45.63;102600.53;5022907;28;19934;-79
2023/04/30 08:23:06;;;;;;;;;;;;;;;10.37;46.74;102598.75;5034174;28;19942;-80
2023/04/30 08:25:31;;;;;;;;;;;;;;;10.52;47.71;102612.59;5023369;28;20010;-78
2023/04/30 08:27:57;;;;;;;;;;;;;;;10.32;47.40;102611.97;5037122;28;19940;-79
2023/04/30 08:30:23;;;;;;;;;;;;;;;10.63;47.37;102603.81;5032365;28;19971;-79
2023/04/30 08:32:49;;;;;;;;;;;;;;;10.71;47.02;102616.09;5006727;28;20379;-79
2023/04/30 08:35:18;;;;;;;;;;;;;;;10.50;46.58;102613.81;5060418;28;20321;-79
2023/04/30 08:37:44;;;;;;;;;;;;;;;10.97;47.67;102606.88;5042818;28;19935;-79
2023/04/30 08:40:10;;;;;;;;;;;;;;;10.73;44.29;102613.16;5021333;28;20035;-79
2023/04/30 08:42:40;;;;;;;;;;;;;;;11.11;45.34;102608.34;5029153;28;20093;-78
2023/04/30 08:45:07;;;;;;;;;;;;;;;10.82;45.85;102612.63;5028123;28;19960;-78
2023/04/30 08:47:33;;;;;;;;;;;;;;;10.75;44.77;102611.06;5052467;28;19933;-78
2023/04/30 08:49:59;;;;;;;;;;;;;;;10.70;47.06;102613.59;5013299;28;19965;-78
2023/04/30 08:52:25;;;;;;;;;;;;;;;10.57;45.64;102602.03;5038267;28;19937;-78
2023/04/30 08:54:53;;;;;;;;;;;;;;;10.84;46.85;102604.38;5031257;28;19986;-77
2023/04/30 08:57:19;;;;;;;;;;;;;;;10.87;45.11;102609.28;5037828;28;20001;-77
2023/04/30 08:59:46;;;;;;;;;;;;;;;11.26;43.65;102607.94;5037189;28;19954;-78
2023/04/30 09:02:12;;;;;;;;;;;;;;;10.59;46.27;102602.59;5041326;28;19934;-78
2023/04/30 09:04:37;;;;;;;;;;;;;;;10.59;47.27;102607.97;5033039;28;20031;-77
2023/04/30 09:07:03;;;;;;;;;;;;;;;11.23;44.03;102610.22;5050349;28;19935;-77
2023/04/30 09:09:29;;;;;;;;;;;;;;;10.59;45.04;102607.97;5026775;28;19932;-78
2023/04/30 09:12:09;;;;;;;;;;;;;;;10.92;44.66;102606.75;5032578;28;19989;-78
2023/04/30 09:14:39;;;;;;;;;;;;;;;10.98;44.47;102607.72;5058271;28;20349;-80
2023/04/30 09:17:05;;;;;;;;;;;;;;;11.05;43.30;102609.25;5040914;28;20003;-79
2023/04/30 09:19:30;;;;;;;;;;;;;;;11.28;44.27;102607.69;5055330;28;19945;-76
2023/04/30 09:21:56;;;;;;;;;;;;;;;11.51;45.31;102615.78;5032789;28;19943;-80
2023/04/30 09:24:22;;;;;;;;;;;;;;;11.00;43.69;102609.09;5051941;28;19928;-79
2023/04/30 09:26:49;;;;;;;;;;;;;;;11.30;44.06;102603.72;5051014;28;19942;-78
2023/04/30 09:29:15;;;;;;;;;;;;;;;11.85;43.01;102597.31;5050812;28;20011;-79
2023/04/30 09:31:43;;;;;;;;;;;;;;;11.45;44.79;102609.50;5030042;28;19942;-80
2023/04/30 09:34:09;;;;;;;;;;;;;;;11.54;42.52;102599.25;5053548;28;19944;-79
2023/04/30 09:36:34;;;;;;;;;;;;;;;11.85;43.59;102600.00;5051644;28;19988;-79
2023/04/30 09:39:16;;;;;;;;;;;;;;;11.42;46.38;102596.53;5046031;28;19931;-79
2023/04/30 09:41:42;;;;;;;;;;;;;;;11.43;44.50;102592.78;5054885;28;19929;-79
2023/04/30 09:44:07;;;;;;;;;;;;;;;12.02;42.33;102600.94;5044989;28;19920;-79
2023/04/30 09:46:37;;;;;;;;;;;;;;;12.14;42.01;102598.28;5027010;28;19972;-80
2023/04/30 09:49:04;;;;;;;;;;;;;;;11.90;42.92;102589.38;5028085;28;20298;-79
2023/04/30 09:51:30;;;;;;;;;;;;;;;11.60;42.29;102587.59;5016214;28;20357;-78
2023/04/30 09:53:56;;;;;;;;;;;;;;;12.04;42.43;102593.47;5036879;28;19946;-79
2023/04/30 09:56:23;;;;;;;;;;;;;;;11.53;44.02;102592.25;5035214;28;19965;-79
2023/04/30 09:58:50;;;;;;;;;;;;;;;11.66;43.16;102581.31;5022571;28;19950;-78
2023/04/30 10:01:16;;;;;;;;;;;;;;;11.47;42.48;102572.50;5032245;28;19986;-78
2023/04/30 10:03:42;;;;;;;;;;;;;;;12.49;41.27;102569.47;5030737;28;20399;-78
2023/04/30 10:06:08;;;;;;;;;;;;;;;11.69;41.49;102574.63;5032416;28;19980;-80
2023/04/30 10:08:41;;;;;;;;;;;;;;;11.67;41.54;102576.75;5016972;28;19973;-78
2023/04/30 10:11:07;;;;;;;;;;;;;;;12.52;40.34;102573.53;5016507;28;20520;-80
2023/04/30 10:13:46;;;;;;;;;;;;;;;12.08;41.44;102573.16;5016076;28;19937;-78
2023/04/30 10:16:22;;;;;;;;;;;;;;;11.74;41.32;102556.78;5032076;28;19972;-79
2023/04/30 10:18:50;;;;;;;;;;;;;;;12.03;41.97;102560.44;5017176;28;19936;-78
2023/04/30 10:21:16;;;;;;;;;;;;;;;11.94;40.17;102555.66;5037023;28;19933;-79
2023/04/30 10:23:43;;;;;;;;;;;;;;;12.33;40.76;102566.69;5051122;28;19933;-79
2023/04/30 10:26:10;;;;;;;;;;;;;;;11.83;40.45;102564.53;5029823;28;19947;-79
2023/04/30 10:28:36;;;;;;;;;;;;;;;12.39;40.83;102563.88;5017309;28;19936;-78
2023/04/30 10:31:03;;;;;;;;;;;;;;;12.72;42.02;102557.81;5021789;28;19938;-80
2023/04/30 10:33:33;;;;;;;;;;;;;;;13.02;40.27;102552.19;5031477;28;19938;-79
2023/04/30 10:36:01;;;;;;;;;;;;;;;12.73;37.94;102553.25;4999646;28;20439;-80
2023/04/30 10:38:28;;;;;;;;;;;;;;;12.62;39.14;102552.25;5036133;28;19972;-78
2023/04/30 10:40:56;;;;;;;;;;;;;;;12.88;37.78;102555.44;5014592;28;19936;-80
2023/04/30 10:43:22;;;;;;;;;;;;;;;12.64;39.04;102560.88;5031879;28;19959;-79
2023/04/30 10:45:48;;;;;;;;;;;;;;;12.59;37.51;102539.28;5019605;28;19998;-82
2023/04/30 10:48:14;;;;;;;;;;;;;;;12.49;38.47;102547.16;5036789;28;19949;-81
2023/04/30 10:50:41;;;;;;;;;;;;;;;12.65;38.32;102535.63;5030701;28;19933;-82
2023/04/30 10:53:10;;;;;;;;;;;;;;;12.69;38.93;102534.13;5013483;28;19942;-81
2023/04/30 10:55:44;;;;;;;;;;;;;;;13.12;37.37;102540.78;5022963;28;20456;-81
2023/04/30 10:58:22;;;;;;;;;;;;;;;12.81;38.51;102534.88;5032937;28;19933;-81
2023/04/30 11:00:50;;;;;;;;;;;;;;;13.00;38.08;102537.34;5031075;28;19944;-81
2023/04/30 11:03:15;;;;;;;;;;;;;;;13.31;38.74;102531.47;5030740;28;19931;-82
2023/04/30 11:05:41;;;;;;;;;;;;;;;13.32;38.59;102526.91;5033309;28;19990;-81
2023/04/30 11:08:10;;;;;;;;;;;;;;;13.56;37.51;102525.69;5016411;28;19939;-82
2023/04/30 11:10:36;;;;;;;;;;;;;;;13.30;38.67;102516.38;5034433;28;19931;-82
2023/04/30 11:13:05;;;;;;;;;;;;;;;13.15;37.84;102523.38;5038113;28;19952;-82
2023/04/30 11:15:33;;;;;;;;;;;;;;;13.80;38.08;102514.69;4999310;28;20012;-81
2023/04/30 11:17:58;;;;;;;;;;;;;;;13.90;35.89;102521.06;5018506;28;19947;-81
2023/04/30 11:20:25;;;;;;;;;;;;;;;14.16;35.89;102518.72;5035725;28;19956;-81
2023/04/30 11:23:07;;;;;;;;;;;;;;;14.22;36.57;102528.47;5016567;28;19953;-80
2023/04/30 11:25:38;;;;;;;;;;;;;;;13.71;34.83;102511.63;5034784;28;19947;-81
2023/04/30 11:28:04;;;;;;;;;;;;;;;14.15;37.89;102523.25;5052519;28;20013;-79
2023/04/30 11:30:31;;;;;;;;;;;;;;;14.03;35.98;102519.06;5030321;28;19985;-81
2023/04/30 11:32:58;;;;;;;;;;;;;;;13.67;36.53;102515.88;5042161;28;19946;-81
2023/04/30 11:35:24;;;;;;;;;;;;;;;13.93;36.38;102515.16;5025268;28;20054;-82
2023/04/30 11:37:53;;;;;;;;;;;;;;;13.66;35.43;102509.66;4999389;28;19979;-76
2023/04/30 11:40:19;;;;;;;;;;;;;;;14.11;35.42;102513.25;5032439;28;19931;-79
2023/04/30 11:42:47;;;;;;;;;;;;;;;14.42;37.02;102509.84;5033975;28;20102;-78
2023/04/30 11:45:16;;;;;;;;;;;;;;;14.26;33.64;102507.22;5014748;28;19943;-79
2023/04/30 11:47:44;;;;;;;;;;;;;;;14.05;37.68;102509.66;5026170;28;20226;-80
2023/04/30 11:50:15;;;;;;;;;;;;;;;14.63;35.36;102499.31;5015901;28;19939;-79
2023/04/30 11:52:41;;;;;;;;;;;;;;;14.92;37.04;102507.97;5040709;28;20023;-77
2023/04/30 11:55:11;;;;;;;;;;;;;;;15.20;33.59;102491.50;5014863;28;20151;-78
2023/04/30 11:57:41;;;;;;;;;;;;;;;15.11;34.48;102493.03;5026034;28;19938;-79
2023/04/30 12:00:08;;;;;;;;;;;;;;;15.66;32.86;102499.94;5035984;28;20293;-78
2023/04/30 12:02:35;;;;;;;;;;;;;;;15.63;31.74;102494.22;5034168;28;20081;-80
2023/04/30 12:05:01;;;;;;;;;;;;;;;15.42;33.66;102494.06;5012757;28;19971;-78
2023/04/30 12:07:27;;;;;;;;;;;;;;;15.74;33.26;102490.53;5003341;28;19946;-79
2023/04/30 12:09:53;;;;;;;;;;;;;;;15.42;33.76;102482.47;5033924;28;19944;-79
2023/04/30 12:12:26;;;;;;;;;;;;;;;15.46;33.77;102479.00;5030647;28;20297;-78
2023/04/30 12:14:52;;;;;;;;;;;;;;;14.95;34.18;102488.56;5016404;28;20420;-79
2023/04/30 12:17:44;;;;;;;;;;;;;;;16.27;34.38;102478.59;5034553;28;19938;-79
2023/04/30 12:20:10;;;;;;;;;;;;;;;16.15;34.27;102474.50;4996651;28;19932;-79
2023/04/30 12:22:36;;;;;;;;;;;;;;;16.55;32.39;102474.63;5011255;28;20028;-79
2023/04/30 12:25:07;;;;;;;;;;;;;;;16.56;32.29;102460.00;5049719;28;20047;-79
2023/04/30 12:27:34;;;;;;;;;;;;;;;17.03;31.72;102467.13;5026912;28;19939;-80
2023/04/30 12:30:06;;;;;;;;;;;;;;;17.11;36.28;102465.75;5028860;28;20638;-79
2023/04/30 12:32:36;;;;;;;;;;;;;;;17.39;32.10;102467.06;5033090;28;19939;-79
2023/04/30 12:35:03;;;;;;;;;;;;;;;18.15;30.96;102464.13;5044716;28;19965;-78
2023/04/30 12:37:29;;;;;;;;;;;;;;;17.27;31.28;102466.53;5031092;28;19947;-78
2023/04/30 12:39:54;;;;;;;;;;;;;;;17.32;32.42;102469.25;5027394;28;20350;-79
2023/04/30 12:42:20;;;;;;;;;;;;;;;16.92;32.17;102473.59;5032464;28;19935;-80